createdAt,value
2017-08-03T00:00:33.133Z,21.00
2017-08-03T00:01:34.004Z,20.99
2017-08-03T00:02:34.625Z,21.06
2017-08-03T00:03:35.245Z,20.99
2017-08-03T00:04:35.867Z,21.05
2017-08-03T00:05:36.484Z,21.07
2017-08-03T00:06:37.211Z,21.05
2017-08-03T00:07:37.830Z,21.06
2017-08-03T00:08:38.450Z,21.02
2017-08-03T00:09:39.070Z,21.00
2017-08-03T00:10:39.690Z,20.85
2017-08-03T00:11:40.611Z,20.88
2017-08-03T00:12:41.335Z,20.85
2017-08-03T00:13:41.954Z,20.88
2017-08-03T00:14:42.575Z,20.87
2017-08-03T00:15:43.194Z,20.88
2017-08-03T00:16:43.820Z,20.84
2017-08-03T00:17:44.544Z,20.88
2017-08-03T00:18:45.162Z,20.87
2017-08-03T00:19:45.781Z,20.85
2017-08-03T00:20:46.402Z,20.84
2017-08-03T00:21:47.030Z,20.85
2017-08-03T00:22:47.802Z,20.87
2017-08-03T00:23:48.426Z,20.90
2017-08-03T00:24:49.051Z,20.82
2017-08-03T00:25:49.668Z,20.87
2017-08-03T00:26:50.294Z,20.80
2017-08-03T00:27:51.168Z,20.84
2017-08-03T00:28:51.786Z,20.85
2017-08-03T00:29:52.404Z,20.82
2017-08-03T00:30:53.028Z,20.77
2017-08-03T00:31:53.648Z,20.70
2017-08-03T00:32:54.418Z,20.75
2017-08-03T00:33:55.038Z,20.75
2017-08-03T00:34:55.660Z,20.75
2017-08-03T00:35:56.281Z,20.72
2017-08-03T00:36:56.901Z,20.70
2017-08-03T00:37:57.627Z,20.80
2017-08-03T00:38:58.252Z,20.78
2017-08-03T00:39:58.875Z,20.82
2017-08-03T00:40:59.514Z,20.84
2017-08-03T00:42:00.120Z,20.75
2017-08-03T00:43:00.838Z,20.81
2017-08-03T00:44:01.463Z,20.78
2017-08-03T00:45:02.081Z,20.80
2017-08-03T00:46:02.705Z,20.81
2017-08-03T00:47:03.323Z,20.74
2017-08-03T00:48:04.147Z,20.77
2017-08-03T00:49:04.764Z,20.81
2017-08-03T00:50:05.383Z,20.74
2017-08-03T00:51:06.038Z,20.78
2017-08-03T00:52:06.688Z,20.74
2017-08-03T00:53:07.408Z,20.77
2017-08-03T00:54:08.284Z,20.77
2017-08-03T00:55:08.903Z,20.72
2017-08-03T00:56:09.528Z,20.77
2017-08-03T00:57:10.146Z,20.69
2017-08-03T00:58:10.767Z,20.78
2017-08-03T00:59:11.618Z,20.78
2017-08-03T01:00:12.243Z,20.75
2017-08-03T01:01:12.862Z,20.80
2017-08-03T01:02:13.481Z,20.78
2017-08-03T01:03:14.101Z,20.67
2017-08-03T01:04:14.824Z,20.67
2017-08-03T01:05:15.442Z,20.63
2017-08-03T01:06:16.068Z,20.59
2017-08-03T01:07:16.685Z,20.60
2017-08-03T01:08:17.305Z,20.63
2017-08-03T01:09:18.025Z,20.60
2017-08-03T01:10:18.643Z,20.58
2017-08-03T01:11:19.270Z,20.56
2017-08-03T01:12:19.923Z,20.50
2017-08-03T01:13:20.548Z,20.51
2017-08-03T01:14:21.401Z,20.40
2017-08-03T01:15:22.022Z,20.36
2017-08-03T01:16:22.643Z,20.31
2017-08-03T01:17:23.268Z,20.36
2017-08-03T01:18:23.884Z,20.32
2017-08-03T01:19:24.638Z,20.31
2017-08-03T01:20:25.259Z,20.32
2017-08-03T01:21:25.881Z,20.32
2017-08-03T01:22:26.499Z,20.32
2017-08-03T01:23:27.120Z,20.21
2017-08-03T01:24:27.856Z,20.22
2017-08-03T01:25:28.505Z,20.13
2017-08-03T01:26:29.122Z,20.16
2017-08-03T01:27:29.742Z,20.13
2017-08-03T01:28:30.562Z,20.04
2017-08-03T01:29:31.288Z,20.03
2017-08-03T01:30:31.905Z,19.91
2017-08-03T01:31:32.628Z,19.91
2017-08-03T01:32:33.280Z,19.91
2017-08-03T01:33:33.900Z,19.89
2017-08-03T01:34:34.519Z,19.85
2017-08-03T01:35:35.140Z,19.82
2017-08-03T01:36:35.858Z,19.85
2017-08-03T01:37:36.476Z,19.86
2017-08-03T01:38:37.096Z,19.85
2017-08-03T01:39:37.722Z,19.85
2017-08-03T01:40:38.338Z,19.76
2017-08-03T01:41:39.156Z,19.89
2017-08-03T01:42:39.883Z,19.77
2017-08-03T01:43:40.502Z,19.85
2017-08-03T01:44:41.122Z,19.92
2017-08-03T01:45:41.743Z,19.82
2017-08-03T01:46:42.363Z,19.77
2017-08-03T01:47:43.082Z,19.79
2017-08-03T01:48:43.708Z,19.91
2017-08-03T01:49:44.327Z,19.85
2017-08-03T01:50:44.947Z,19.82
2017-08-03T01:51:45.566Z,19.86
2017-08-03T01:52:46.285Z,19.79
2017-08-03T01:53:46.905Z,19.82
2017-08-03T01:54:47.527Z,19.79
2017-08-03T01:55:48.147Z,19.74
2017-08-03T01:56:48.766Z,19.73
2017-08-03T01:57:49.485Z,19.63
2017-08-03T01:58:50.106Z,19.70
2017-08-03T01:59:50.726Z,19.69
2017-08-03T02:00:51.345Z,19.64
2017-08-03T02:01:51.965Z,19.63
2017-08-03T02:02:52.684Z,19.59
2017-08-03T02:03:53.305Z,19.52
2017-08-03T02:04:53.923Z,19.41
2017-08-03T02:05:54.548Z,19.49
2017-08-03T02:06:55.164Z,19.41
2017-08-03T02:07:55.889Z,19.39
2017-08-03T02:08:56.511Z,19.41
2017-08-03T02:09:57.126Z,19.37
2017-08-03T02:10:57.748Z,19.36
2017-08-03T02:11:58.366Z,19.37
2017-08-03T02:12:59.085Z,19.37
2017-08-03T02:13:59.705Z,19.37
2017-08-03T02:15:00.326Z,19.40
2017-08-03T02:16:00.946Z,19.37
2017-08-03T02:17:01.563Z,19.29
2017-08-03T02:18:02.281Z,19.37
2017-08-03T02:19:02.901Z,19.39
2017-08-03T02:20:03.527Z,19.33
2017-08-03T02:21:04.144Z,19.39
2017-08-03T02:22:04.766Z,19.33
2017-08-03T02:23:05.514Z,19.36
2017-08-03T02:24:06.268Z,19.27
2017-08-03T02:25:06.888Z,19.33
2017-08-03T02:26:07.504Z,19.37
2017-08-03T02:27:08.126Z,19.34
2017-08-03T02:28:08.756Z,19.33
2017-08-03T02:29:09.462Z,19.30
2017-08-03T02:30:10.082Z,19.34
2017-08-03T02:31:10.701Z,19.37
2017-08-03T02:32:11.331Z,19.31
2017-08-03T02:33:11.984Z,19.34
2017-08-03T02:34:12.700Z,19.34
2017-08-03T02:35:13.321Z,19.41
2017-08-03T02:36:13.946Z,19.34
2017-08-03T02:37:14.598Z,19.29
2017-08-03T02:38:15.218Z,19.24
2017-08-03T02:39:15.935Z,19.26
2017-08-03T02:40:16.563Z,19.26
2017-08-03T02:41:17.179Z,19.19
2017-08-03T02:42:17.798Z,19.15
2017-08-03T02:43:18.418Z,19.21
2017-08-03T02:44:19.144Z,19.21
2017-08-03T02:45:19.756Z,19.19
2017-08-03T02:46:20.377Z,19.27
2017-08-03T02:47:20.994Z,19.27
2017-08-03T02:48:21.617Z,19.30
2017-08-03T02:49:22.333Z,19.30
2017-08-03T02:50:22.986Z,19.27
2017-08-03T02:51:23.605Z,19.34
2017-08-03T02:52:24.226Z,19.34
2017-08-03T02:53:24.845Z,19.26
2017-08-03T02:54:25.564Z,19.36
2017-08-03T02:55:26.288Z,19.24
2017-08-03T02:56:26.905Z,19.26
2017-08-03T02:57:27.523Z,19.33
2017-08-03T02:58:28.141Z,19.21
2017-08-03T02:59:28.758Z,19.26
2017-08-03T03:00:29.484Z,19.33
2017-08-03T03:01:30.099Z,19.33
2017-08-03T03:02:30.719Z,19.34
2017-08-03T03:03:31.372Z,19.18
2017-08-03T03:04:32.091Z,19.26
2017-08-03T03:05:32.811Z,19.16
2017-08-03T03:06:33.466Z,19.21
2017-08-03T03:07:34.119Z,19.24
2017-08-03T03:08:34.744Z,19.22
2017-08-03T03:09:35.361Z,19.18
2017-08-03T03:10:36.086Z,19.18
2017-08-03T03:11:36.739Z,19.29
2017-08-03T03:12:37.360Z,19.33
2017-08-03T03:13:38.014Z,19.36
2017-08-03T03:14:38.633Z,19.37
2017-08-03T03:15:39.352Z,19.30
2017-08-03T03:16:39.971Z,19.39
2017-08-03T03:17:40.591Z,19.49
2017-08-03T03:18:41.216Z,19.47
2017-08-03T03:19:41.831Z,19.47
2017-08-03T03:20:42.553Z,19.54
2017-08-03T03:21:43.174Z,19.55
2017-08-03T03:22:43.795Z,19.52
2017-08-03T03:23:44.414Z,19.62
2017-08-03T03:24:45.033Z,19.64
2017-08-03T03:25:45.752Z,19.62
2017-08-03T03:26:46.374Z,19.64
2017-08-03T03:27:46.995Z,19.52
2017-08-03T03:28:47.613Z,19.58
2017-08-03T03:29:48.237Z,19.52
2017-08-03T03:30:48.959Z,19.55
2017-08-03T03:31:49.677Z,19.54
2017-08-03T03:32:50.294Z,19.56
2017-08-03T03:33:50.913Z,19.52
2017-08-03T03:34:51.532Z,19.56
2017-08-03T03:35:52.255Z,19.54
2017-08-03T03:36:53.010Z,19.47
2017-08-03T03:37:53.633Z,19.56
2017-08-03T03:38:54.256Z,19.51
2017-08-03T03:39:54.874Z,19.58
2017-08-03T03:40:55.528Z,19.58
2017-08-03T03:41:56.254Z,19.64
2017-08-03T03:42:56.871Z,19.58
2017-08-03T03:43:57.492Z,19.67
2017-08-03T03:44:58.112Z,19.66
2017-08-03T03:45:58.732Z,19.56
2017-08-03T03:46:59.451Z,19.58
2017-08-03T03:48:00.070Z,19.55
2017-08-03T03:49:00.722Z,19.49
2017-08-03T03:50:01.351Z,19.47
2017-08-03T03:51:02.001Z,19.52
2017-08-03T03:52:02.727Z,19.47
2017-08-03T03:53:03.344Z,19.49
2017-08-03T03:54:03.994Z,19.44
2017-08-03T03:55:04.612Z,19.47
2017-08-03T03:56:05.231Z,19.48
2017-08-03T03:57:05.956Z,19.45
2017-08-03T03:58:06.573Z,19.45
2017-08-03T03:59:07.198Z,19.49
2017-08-03T04:00:07.815Z,19.47
2017-08-03T04:01:08.474Z,19.59
2017-08-03T04:02:09.187Z,19.55
2017-08-03T04:03:09.906Z,19.55
2017-08-03T04:04:10.525Z,19.67
2017-08-03T04:05:11.144Z,19.55
2017-08-03T04:06:11.764Z,19.55
2017-08-03T04:07:12.384Z,19.66
2017-08-03T04:08:13.111Z,19.69
2017-08-03T04:09:13.731Z,19.58
2017-08-03T04:10:14.373Z,19.58
2017-08-03T04:11:14.971Z,19.56
2017-08-03T04:12:15.589Z,19.49
2017-08-03T04:13:16.309Z,19.48
2017-08-03T04:14:16.926Z,19.52
2017-08-03T04:15:17.546Z,19.59
2017-08-03T04:16:18.171Z,19.52
2017-08-03T04:17:18.788Z,19.62
2017-08-03T04:18:19.509Z,19.63
2017-08-03T04:19:20.128Z,19.69
2017-08-03T04:20:20.749Z,19.67
2017-08-03T04:21:21.370Z,19.69
2017-08-03T04:22:21.991Z,19.67
2017-08-03T04:23:22.744Z,19.66
2017-08-03T04:24:23.368Z,19.66
2017-08-03T04:25:23.984Z,19.62
2017-08-03T04:26:24.605Z,19.63
2017-08-03T04:27:25.230Z,19.62
2017-08-03T04:28:25.952Z,19.62
2017-08-03T04:29:26.567Z,19.62
2017-08-03T04:30:27.189Z,19.63
2017-08-03T04:31:27.818Z,19.66
2017-08-03T04:32:28.474Z,19.62
2017-08-03T04:33:29.196Z,19.64
2017-08-03T04:34:29.814Z,19.64
2017-08-03T04:35:30.436Z,19.63
2017-08-03T04:36:31.063Z,19.67
2017-08-03T04:37:31.687Z,19.66
2017-08-03T04:38:32.409Z,19.66
2017-08-03T04:39:33.033Z,19.63
2017-08-03T04:40:33.652Z,19.64
2017-08-03T04:41:34.271Z,19.69
2017-08-03T04:42:34.898Z,19.73
2017-08-03T04:43:35.616Z,19.86
2017-08-03T04:44:36.243Z,19.86
2017-08-03T04:45:36.895Z,19.85
2017-08-03T04:46:37.548Z,19.85
2017-08-03T04:47:38.167Z,19.88
2017-08-03T04:48:38.887Z,19.81
2017-08-03T04:49:39.509Z,19.91
2017-08-03T04:50:40.134Z,19.82
2017-08-03T04:51:40.751Z,19.96
2017-08-03T04:52:41.370Z,19.94
2017-08-03T04:53:42.097Z,19.96
2017-08-03T04:54:42.815Z,19.99
2017-08-03T04:55:43.438Z,20.04
2017-08-03T04:56:44.059Z,19.99
2017-08-03T04:57:44.714Z,20.04
2017-08-03T04:58:45.341Z,19.94
2017-08-03T04:59:46.095Z,19.96
2017-08-03T05:00:46.723Z,19.95
2017-08-03T05:01:47.348Z,19.94
2017-08-03T05:02:47.966Z,19.92
2017-08-03T05:03:48.585Z,19.88
2017-08-03T05:04:49.310Z,19.91
2017-08-03T05:05:49.930Z,19.89
2017-08-03T05:06:50.556Z,19.91
2017-08-03T05:07:51.179Z,19.82
2017-08-03T05:08:51.797Z,19.79
2017-08-03T05:09:52.517Z,19.73
2017-08-03T05:10:53.140Z,19.64
2017-08-03T05:11:53.764Z,19.64
2017-08-03T05:12:54.382Z,19.69
2017-08-03T05:13:55.041Z,19.69
2017-08-03T05:14:55.767Z,19.64
2017-08-03T05:15:56.390Z,19.56
2017-08-03T05:16:57.007Z,19.56
2017-08-03T05:17:57.627Z,19.67
2017-08-03T05:18:58.255Z,19.66
2017-08-03T05:19:58.972Z,19.66
2017-08-03T05:20:59.590Z,19.59
2017-08-03T05:22:00.210Z,19.64
2017-08-03T05:23:00.833Z,19.62
2017-08-03T05:24:01.454Z,19.70
2017-08-03T05:25:02.174Z,19.67
2017-08-03T05:26:02.894Z,19.74
2017-08-03T05:27:03.519Z,19.67
2017-08-03T05:28:04.142Z,19.56
2017-08-03T05:29:04.762Z,19.51
2017-08-03T05:30:05.382Z,19.58
2017-08-03T05:31:06.104Z,19.52
2017-08-03T05:32:06.731Z,19.52
2017-08-03T05:33:07.348Z,19.48
2017-08-03T05:34:07.970Z,19.48
2017-08-03T05:35:08.593Z,19.52
2017-08-03T05:36:09.318Z,19.44
2017-08-03T05:37:09.933Z,19.36
2017-08-03T05:38:10.560Z,19.49
2017-08-03T05:39:11.179Z,19.40
2017-08-03T05:40:11.798Z,19.44
2017-08-03T05:41:12.518Z,19.47
2017-08-03T05:42:13.142Z,19.45
2017-08-03T05:43:13.862Z,19.51
2017-08-03T05:44:14.582Z,19.54
2017-08-03T05:45:15.209Z,19.44
2017-08-03T05:46:15.931Z,19.48
2017-08-03T05:47:16.580Z,19.49
2017-08-03T05:48:17.200Z,19.47
2017-08-03T05:49:17.820Z,19.52
2017-08-03T05:50:18.442Z,19.54
2017-08-03T05:51:19.167Z,19.62
2017-08-03T05:52:19.794Z,19.59
2017-08-03T05:53:20.411Z,19.55
2017-08-03T05:54:21.065Z,19.64
2017-08-03T05:55:21.686Z,19.64
2017-08-03T05:56:22.406Z,19.54
2017-08-03T05:57:23.058Z,19.58
2017-08-03T05:58:23.678Z,19.64
2017-08-03T05:59:24.299Z,19.66
2017-08-03T06:00:24.920Z,19.66
2017-08-03T06:01:25.680Z,19.73
2017-08-03T06:02:26.299Z,19.70
2017-08-03T06:03:26.921Z,19.71
2017-08-03T06:04:27.543Z,19.76
2017-08-03T06:05:28.166Z,19.82
2017-08-03T06:06:28.886Z,19.82
2017-08-03T06:07:29.507Z,19.89
2017-08-03T06:08:30.137Z,19.88
2017-08-03T06:09:30.758Z,19.91
2017-08-03T06:10:31.388Z,19.84
2017-08-03T06:11:32.105Z,20.03
2017-08-03T06:12:32.728Z,20.07
2017-08-03T06:13:33.352Z,20.19
2017-08-03T06:14:33.973Z,20.21
2017-08-03T06:15:34.595Z,20.25
2017-08-03T06:16:35.318Z,20.36
2017-08-03T06:17:36.045Z,20.36
2017-08-03T06:18:36.666Z,20.43
2017-08-03T06:19:37.289Z,20.52
2017-08-03T06:20:37.910Z,20.63
2017-08-03T06:21:38.539Z,20.70
2017-08-03T06:22:39.266Z,20.66
2017-08-03T06:23:39.885Z,20.74
2017-08-03T06:24:40.507Z,20.77
2017-08-03T06:25:41.139Z,20.87
2017-08-03T06:26:41.759Z,20.85
2017-08-03T06:27:42.482Z,20.92
2017-08-03T06:28:43.107Z,21.03
2017-08-03T06:29:43.730Z,20.97
2017-08-03T06:30:44.353Z,20.99
2017-08-03T06:31:44.975Z,21.02
2017-08-03T06:32:45.702Z,21.02
2017-08-03T06:33:46.324Z,21.06
2017-08-03T06:34:46.947Z,20.97
2017-08-03T06:35:47.569Z,21.00
2017-08-03T06:36:48.194Z,20.99
2017-08-03T06:37:48.916Z,21.02
2017-08-03T06:38:49.640Z,21.03
2017-08-03T06:39:50.268Z,21.02
2017-08-03T06:40:50.905Z,21.05
2017-08-03T06:41:51.545Z,21.11
2017-08-03T06:42:52.174Z,20.99
2017-08-03T06:43:52.896Z,21.02
2017-08-03T06:44:53.526Z,20.99
2017-08-03T06:45:54.146Z,21.07
2017-08-03T06:46:54.770Z,21.03
2017-08-03T06:47:55.397Z,21.05
2017-08-03T06:48:56.128Z,20.97
2017-08-03T06:49:56.755Z,21.03
2017-08-03T06:50:57.375Z,21.06
2017-08-03T06:51:57.998Z,21.02
2017-08-03T06:52:58.623Z,21.05
2017-08-03T06:53:59.382Z,21.07
2017-08-03T06:55:00.040Z,20.96
2017-08-03T06:56:00.663Z,20.95
2017-08-03T06:57:01.286Z,21.11
2017-08-03T06:58:01.908Z,21.21
2017-08-03T06:59:02.632Z,21.29
2017-08-03T07:00:03.262Z,21.39
2017-08-03T07:01:03.985Z,21.50
2017-08-03T07:02:04.606Z,21.54
2017-08-03T07:03:05.229Z,21.51
2017-08-03T07:04:05.858Z,21.57
2017-08-03T07:05:06.515Z,21.60
2017-08-03T07:06:07.240Z,21.67
2017-08-03T07:07:07.863Z,21.72
2017-08-03T07:08:08.494Z,21.75
2017-08-03T07:09:09.114Z,21.73
2017-08-03T07:10:09.837Z,21.76
2017-08-03T07:11:10.460Z,21.91
2017-08-03T07:12:11.088Z,21.82
2017-08-03T07:13:11.744Z,21.95
2017-08-03T07:14:12.369Z,21.89
2017-08-03T07:15:13.097Z,21.87
2017-08-03T07:16:13.717Z,21.98
2017-08-03T07:17:14.343Z,22.06
2017-08-03T07:18:14.971Z,22.00
2017-08-03T07:19:15.592Z,22.14
2017-08-03T07:20:16.322Z,22.08
2017-08-03T07:21:17.048Z,22.14
2017-08-03T07:22:17.769Z,22.20
2017-08-03T07:23:18.393Z,22.25
2017-08-03T07:24:19.017Z,22.23
2017-08-03T07:25:19.642Z,22.23
2017-08-03T07:26:20.366Z,22.17
2017-08-03T07:27:21.095Z,22.20
2017-08-03T07:28:21.746Z,22.18
2017-08-03T07:29:22.373Z,22.17
2017-08-03T07:30:23.033Z,22.07
2017-08-03T07:31:23.653Z,22.04
2017-08-03T07:32:24.380Z,22.14
2017-08-03T07:33:25.004Z,22.17
2017-08-03T07:34:25.629Z,22.15
2017-08-03T07:35:26.255Z,22.17
2017-08-03T07:36:26.878Z,22.20
2017-08-03T07:37:27.608Z,22.36
2017-08-03T07:38:28.231Z,22.28
2017-08-03T07:39:28.854Z,22.36
2017-08-03T07:40:29.578Z,22.41
2017-08-03T07:41:30.210Z,22.38
2017-08-03T07:42:30.834Z,22.44
2017-08-03T07:43:31.458Z,22.41
2017-08-03T07:44:32.085Z,22.39
2017-08-03T07:45:32.839Z,22.39
2017-08-03T07:46:33.463Z,22.41
2017-08-03T07:47:34.086Z,22.47
2017-08-03T07:48:34.710Z,22.44
2017-08-03T07:49:35.333Z,22.39
2017-08-03T07:50:36.058Z,22.33
2017-08-03T07:51:36.688Z,22.18
2017-08-03T07:52:37.309Z,22.25
2017-08-03T07:53:37.933Z,22.14
2017-08-03T07:54:38.558Z,22.02
2017-08-03T07:55:39.285Z,22.02
2017-08-03T07:56:39.910Z,22.00
2017-08-03T07:57:40.535Z,21.99
2017-08-03T07:58:41.161Z,22.07
2017-08-03T07:59:41.890Z,22.11
2017-08-03T08:00:42.612Z,22.15
2017-08-03T08:01:43.269Z,22.10
2017-08-03T08:02:43.893Z,22.02
2017-08-03T08:03:44.516Z,22.06
2017-08-03T08:04:45.142Z,22.02
2017-08-03T08:05:45.866Z,21.95
2017-08-03T08:06:46.524Z,21.89
2017-08-03T08:07:47.153Z,21.98
2017-08-03T08:08:47.784Z,21.83
2017-08-03T08:09:48.405Z,21.87
2017-08-03T08:10:49.130Z,21.80
2017-08-03T08:11:49.861Z,21.91
2017-08-03T08:12:50.484Z,22.04
2017-08-03T08:13:51.108Z,22.00
2017-08-03T08:14:51.739Z,21.99
2017-08-03T08:15:52.359Z,22.06
2017-08-03T08:16:53.116Z,22.07
2017-08-03T08:17:53.742Z,22.23
2017-08-03T08:18:54.469Z,22.33
2017-08-03T08:19:55.090Z,22.51
2017-08-03T08:20:55.717Z,22.60
2017-08-03T08:21:56.349Z,22.72
2017-08-03T08:22:56.969Z,22.73
2017-08-03T08:23:57.695Z,22.94
2017-08-03T08:24:58.313Z,22.81
2017-08-03T08:25:59.069Z,22.85
2017-08-03T08:26:59.793Z,22.84
2017-08-03T08:28:00.451Z,22.87
2017-08-03T08:29:01.074Z,22.83
2017-08-03T08:30:01.699Z,22.85
2017-08-03T08:31:02.323Z,22.96
2017-08-03T08:32:03.047Z,22.94
2017-08-03T08:33:03.773Z,22.96
2017-08-03T08:34:04.400Z,22.94
2017-08-03T08:35:05.023Z,22.85
2017-08-03T08:36:05.753Z,22.83
2017-08-03T08:37:06.442Z,22.81
2017-08-03T08:38:07.068Z,22.60
2017-08-03T08:39:07.690Z,22.65
2017-08-03T08:40:08.317Z,22.59
2017-08-03T08:41:09.041Z,22.60
2017-08-03T08:42:09.668Z,22.55
2017-08-03T08:43:10.397Z,22.51
2017-08-03T08:44:11.019Z,22.60
2017-08-03T08:45:11.652Z,22.60
2017-08-03T08:46:12.270Z,22.60
2017-08-03T08:47:12.896Z,22.59
2017-08-03T08:48:13.622Z,22.57
2017-08-03T08:49:14.343Z,22.60
2017-08-03T08:50:15.067Z,22.54
2017-08-03T08:51:15.693Z,22.54
2017-08-03T08:52:16.322Z,22.54
2017-08-03T08:53:17.044Z,22.51
2017-08-03T08:54:17.668Z,22.60
2017-08-03T08:55:18.294Z,22.62
2017-08-03T08:56:18.922Z,22.51
2017-08-03T08:57:19.545Z,22.60
2017-08-03T08:58:20.269Z,22.69
2017-08-03T08:59:21.002Z,22.63
2017-08-03T09:00:21.726Z,22.68
2017-08-03T09:01:22.353Z,22.66
2017-08-03T09:02:22.978Z,22.63
2017-08-03T09:03:23.703Z,22.53
2017-08-03T09:04:24.334Z,22.65
2017-08-03T09:05:25.054Z,22.63
2017-08-03T09:06:25.717Z,22.65
2017-08-03T09:07:26.345Z,22.68
2017-08-03T09:08:27.068Z,22.73
2017-08-03T09:09:27.693Z,22.62
2017-08-03T09:10:28.357Z,22.55
2017-08-03T09:11:28.986Z,22.65
2017-08-03T09:12:29.707Z,22.72
2017-08-03T09:13:30.431Z,22.78
2017-08-03T09:14:31.062Z,22.83
2017-08-03T09:15:31.711Z,22.84
2017-08-03T09:16:32.336Z,22.85
2017-08-03T09:17:32.964Z,22.83
2017-08-03T09:18:33.684Z,22.75
2017-08-03T09:19:34.308Z,22.72
2017-08-03T09:20:34.932Z,22.75
2017-08-03T09:21:35.560Z,22.70
2017-08-03T09:22:36.189Z,22.72
2017-08-03T09:23:36.910Z,22.70
2017-08-03T09:24:37.639Z,22.54
2017-08-03T09:25:38.260Z,22.62
2017-08-03T09:26:38.891Z,22.66
2017-08-03T09:27:39.513Z,22.60
2017-08-03T09:28:40.144Z,22.65
2017-08-03T09:29:40.865Z,22.69
2017-08-03T09:30:41.489Z,22.72
2017-08-03T09:31:42.116Z,22.73
2017-08-03T09:32:42.741Z,22.78
2017-08-03T09:33:43.364Z,22.73
2017-08-03T09:34:44.088Z,22.72
2017-08-03T09:35:44.724Z,22.69
2017-08-03T09:36:45.345Z,22.55
2017-08-03T09:37:45.966Z,22.57
2017-08-03T09:38:46.593Z,22.63
2017-08-03T09:39:47.319Z,22.59
2017-08-03T09:40:47.943Z,22.69
2017-08-03T09:41:48.569Z,22.70
2017-08-03T09:42:49.295Z,22.78
2017-08-03T09:43:49.919Z,22.83
2017-08-03T09:44:50.646Z,23.09
2017-08-03T09:45:51.271Z,23.24
2017-08-03T09:46:51.894Z,23.55
2017-08-03T09:47:52.619Z,23.66
2017-08-03T09:48:53.242Z,23.73
2017-08-03T09:49:53.868Z,23.66
2017-08-03T09:50:54.597Z,23.62
2017-08-03T09:51:55.227Z,23.47
2017-08-03T09:52:55.848Z,23.28
2017-08-03T09:53:56.781Z,23.27
2017-08-03T09:54:57.509Z,23.12
2017-08-03T09:55:58.237Z,23.06
2017-08-03T09:56:59.093Z,23.08
2017-08-03T09:57:59.878Z,22.99
2017-08-03T10:00:16.196Z,22.98
2017-08-03T10:01:17.029Z,22.99
2017-08-03T10:02:17.648Z,22.90
2017-08-03T10:03:18.274Z,22.88
2017-08-03T10:04:18.909Z,22.83
2017-08-03T10:05:19.785Z,22.90
2017-08-03T10:06:20.410Z,22.93
2017-08-03T10:07:21.033Z,22.93
2017-08-03T10:08:21.660Z,22.93
2017-08-03T10:09:22.284Z,22.85
2017-08-03T10:10:23.008Z,22.90
2017-08-03T10:11:23.656Z,22.98
2017-08-03T10:12:24.359Z,23.00
2017-08-03T10:13:25.089Z,22.96
2017-08-03T10:14:25.712Z,22.93
2017-08-03T10:15:26.333Z,23.00
2017-08-03T10:16:26.958Z,22.94
2017-08-03T10:17:27.617Z,23.02
2017-08-03T10:18:28.344Z,22.98
2017-08-03T10:19:28.969Z,22.91
2017-08-03T10:20:29.625Z,22.84
2017-08-03T10:21:30.249Z,22.84
2017-08-03T10:22:30.873Z,22.78
2017-08-03T10:23:31.600Z,22.72
2017-08-03T10:24:32.230Z,22.75
2017-08-03T10:25:32.852Z,22.65
2017-08-03T10:26:33.477Z,22.80
2017-08-03T10:27:34.141Z,22.85
2017-08-03T10:28:34.862Z,22.81
2017-08-03T10:29:35.488Z,22.81
2017-08-03T10:30:36.114Z,22.83
2017-08-03T10:31:36.742Z,22.81
2017-08-03T10:32:37.369Z,22.83
2017-08-03T10:33:38.088Z,22.90
2017-08-03T10:34:38.812Z,22.80
2017-08-03T10:35:39.438Z,22.81
2017-08-03T10:36:40.064Z,22.83
2017-08-03T10:37:40.689Z,22.69
2017-08-03T10:38:41.320Z,22.80
2017-08-03T10:39:42.045Z,22.80
2017-08-03T10:40:42.766Z,22.90
2017-08-03T10:41:43.490Z,23.06
2017-08-03T10:42:44.121Z,23.15
2017-08-03T10:43:44.742Z,23.34
2017-08-03T10:44:45.368Z,23.51
2017-08-03T10:45:45.994Z,23.71
2017-08-03T10:46:46.717Z,23.91
2017-08-03T10:47:47.347Z,23.92
2017-08-03T10:48:48.072Z,24.01
2017-08-03T10:49:48.696Z,24.29
2017-08-03T10:50:49.427Z,24.40
2017-08-03T10:51:50.058Z,24.61
2017-08-03T10:52:50.681Z,24.69
2017-08-03T10:53:51.304Z,24.84
2017-08-03T10:54:51.930Z,24.98
2017-08-03T10:55:52.661Z,25.17
2017-08-03T10:56:53.285Z,25.35
2017-08-03T10:57:53.922Z,25.36
2017-08-03T10:58:54.573Z,25.36
2017-08-03T10:59:55.200Z,25.46
2017-08-03T11:00:55.925Z,25.59
2017-08-03T11:01:56.650Z,25.81
2017-08-03T11:02:57.280Z,25.98
2017-08-03T11:03:58.006Z,26.02
2017-08-03T11:04:58.631Z,26.03
2017-08-03T11:05:59.297Z,26.05
2017-08-03T11:07:00.263Z,26.06
2017-08-03T11:08:00.892Z,26.05
2017-08-03T11:09:01.552Z,26.19
2017-08-03T11:10:02.189Z,26.29
2017-08-03T11:11:02.922Z,26.37
2017-08-03T11:12:03.590Z,26.38
2017-08-03T11:13:04.465Z,26.41
2017-08-03T11:14:05.197Z,26.37
2017-08-03T11:15:05.920Z,26.45
2017-08-03T11:16:06.650Z,26.37
2017-08-03T11:17:07.311Z,26.48
2017-08-03T11:18:07.944Z,26.41
2017-08-03T11:19:08.610Z,26.25
2017-08-03T11:20:09.339Z,26.13
2017-08-03T11:21:10.065Z,25.99
2017-08-03T11:22:10.692Z,25.87
2017-08-03T11:23:11.320Z,25.81
2017-08-03T11:24:12.051Z,25.65
2017-08-03T11:25:12.683Z,25.55
2017-08-03T11:26:13.412Z,25.41
2017-08-03T11:27:14.038Z,25.35
2017-08-03T11:28:14.670Z,25.28
2017-08-03T11:29:15.297Z,25.29
2017-08-03T11:30:15.929Z,25.13
2017-08-03T11:31:16.669Z,25.23
2017-08-03T11:32:17.429Z,25.25
2017-08-03T11:33:18.054Z,25.22
2017-08-03T11:34:18.686Z,25.35
2017-08-03T11:35:19.311Z,25.43
2017-08-03T11:36:20.035Z,25.60
2017-08-03T11:37:20.762Z,25.62
2017-08-03T11:38:21.390Z,25.58
2017-08-03T11:39:22.122Z,25.47
2017-08-03T11:40:22.745Z,25.41
2017-08-03T11:41:23.473Z,25.46
2017-08-03T11:42:24.199Z,25.38
2017-08-03T11:43:24.832Z,25.44
2017-08-03T11:44:25.469Z,25.44
2017-08-03T11:45:26.101Z,25.40
2017-08-03T11:46:26.732Z,25.29
2017-08-03T11:47:27.457Z,25.35
2017-08-03T11:48:28.186Z,25.26
2017-08-03T11:49:28.912Z,25.38
2017-08-03T11:50:29.639Z,25.26
2017-08-03T11:51:30.264Z,25.29
2017-08-03T11:52:30.892Z,25.32
2017-08-03T11:53:31.520Z,25.26
2017-08-03T11:54:32.245Z,25.38
2017-08-03T11:55:32.973Z,25.43
2017-08-03T11:56:33.600Z,25.50
2017-08-03T11:57:34.224Z,25.50
2017-08-03T11:58:34.951Z,25.46
2017-08-03T11:59:35.580Z,25.54
2017-08-03T12:00:36.304Z,25.68
2017-08-03T12:01:36.940Z,25.84
2017-08-03T12:02:37.669Z,25.98
2017-08-03T12:03:38.401Z,26.10
2017-08-03T12:04:39.032Z,26.15
2017-08-03T12:05:39.761Z,26.29
2017-08-03T12:06:40.389Z,26.40
2017-08-03T12:07:41.118Z,26.41
2017-08-03T12:08:41.742Z,26.41
2017-08-03T12:09:42.468Z,26.56
2017-08-03T12:10:43.098Z,26.56
2017-08-03T12:11:43.881Z,26.53
2017-08-03T12:12:44.606Z,26.56
2017-08-03T12:13:45.233Z,26.56
2017-08-03T12:14:45.963Z,26.62
2017-08-03T12:15:46.691Z,26.74
2017-08-03T12:16:47.353Z,26.81
2017-08-03T12:17:48.080Z,27.02
2017-08-03T12:18:48.808Z,27.14
2017-08-03T12:19:49.448Z,27.27
2017-08-03T12:20:50.115Z,27.45
2017-08-03T12:21:50.741Z,27.30
2017-08-03T12:22:51.474Z,27.29
2017-08-03T12:23:52.199Z,27.27
2017-08-03T12:24:52.928Z,27.25
2017-08-03T12:25:53.562Z,27.29
2017-08-03T12:26:54.290Z,27.36
2017-08-03T12:27:55.018Z,27.35
2017-08-03T12:28:55.655Z,27.58
2017-08-03T12:29:56.281Z,27.60
2017-08-03T12:30:57.008Z,27.82
2017-08-03T12:31:57.642Z,28.01
2017-08-03T12:32:58.418Z,28.02
2017-08-03T12:33:59.152Z,28.05
2017-08-03T12:34:59.790Z,28.11
2017-08-03T12:36:00.416Z,28.14
2017-08-03T12:37:01.048Z,28.08
2017-08-03T12:38:01.677Z,28.11
2017-08-03T12:39:02.408Z,28.02
2017-08-03T12:40:03.138Z,28.05
2017-08-03T12:41:03.766Z,28.04
2017-08-03T12:42:04.400Z,28.29
2017-08-03T12:43:05.068Z,28.39
2017-08-03T12:44:05.795Z,28.47
2017-08-03T12:45:06.429Z,28.38
2017-08-03T12:46:07.366Z,28.29
2017-08-03T12:47:08.138Z,28.27
2017-08-03T12:48:08.766Z,28.29
2017-08-03T12:49:09.403Z,28.27
2017-08-03T12:50:10.029Z,28.29
2017-08-03T12:51:10.689Z,28.29
2017-08-03T12:52:11.420Z,28.14
2017-08-03T12:53:12.353Z,28.01
2017-08-03T12:54:12.986Z,28.05
2017-08-03T12:55:13.655Z,27.98
2017-08-03T12:56:14.384Z,28.14
2017-08-03T12:57:15.114Z,28.22
2017-08-03T12:58:15.881Z,28.33
2017-08-03T12:59:16.807Z,28.35
2017-08-03T13:00:17.441Z,28.56
2017-08-03T13:01:18.173Z,28.69
2017-08-03T13:02:18.802Z,28.59